Time;durP1;ratioP1;P1;durP2;ratioP2;P2;SDS_P1;SDS_P2;PMS_P1;PMS_P2;Temp;Humidity;BMP_temperature;BMP_pressure;BME280_temperature;BME280_humidity;BME280_pressure;Samples;Min_cycle;Max_cycle;Signal;HPM_P1;HPM_P2
2022/10/21 00:00:41;;;;;;;7.12;4.08;;;;;;;3.84;100.00;100992.72;1738578;82;21254;-65
2022/10/21 00:03:08;;;;;;;4.05;3.65;;;;;;;3.74;100.00;100997.46;1738696;82;21060;-66
2022/10/21 00:05:35;;;;;;;6.62;4.03;;;;;;;3.73;100.00;100992.69;1738763;82;21544;-66
2022/10/21 00:08:02;;;;;;;5.67;3.65;;;;;;;3.50;100.00;100997.78;1738791;82;21064;-65
2022/10/21 00:10:29;;;;;;;5.25;3.70;;;;;;;3.60;100.00;100989.58;1738697;82;21075;-64
2022/10/21 00:12:55;;;;;;;5.92;3.80;;;;;;;3.60;100.00;100995.23;1738887;82;21225;-65
2022/10/21 00:15:23;;;;;;;11.60;4.58;;;;;;;3.48;100.00;101000.80;1738847;82;21540;-65
2022/10/21 00:17:51;;;;;;;8.43;3.40;;;;;;;3.61;100.00;101000.42;1738833;82;21076;-65
2022/10/21 00:20:18;;;;;;;6.80;3.98;;;;;;;3.41;100.00;100995.12;1739026;82;21016;-66
2022/10/21 00:22:45;;;;;;;7.97;4.05;;;;;;;3.41;100.00;100995.12;1739104;82;21092;-66
2022/10/21 00:25:12;;;;;;;5.95;4.05;;;;;;;3.42;100.00;100994.25;1738849;82;21131;-66
2022/10/21 00:27:40;;;;;;;6.30;3.80;;;;;;;3.30;100.00;100992.87;1738908;82;21246;-65
2022/10/21 00:30:10;;;;;;;5.60;4.00;;;;;;;3.30;100.00;100992.87;1738940;82;21069;-67
2022/10/21 00:32:37;;;;;;;5.22;4.28;;;;;;;3.31;100.00;100992.00;1734128;82;21060;-65
2022/10/21 00:35:04;;;;;;;8.30;3.95;;;;;;;3.25;100.00;100998.05;1759578;81;21001;-66
2022/10/21 00:37:32;;;;;;;7.05;4.12;;;;;;;3.12;100.00;100998.38;1767539;81;21113;-65
2022/10/21 00:39:58;;;;;;;5.12;3.67;;;;;;;3.14;100.00;100994.06;1767359;81;21048;-66
2022/10/21 00:42:36;;;;;;;8.18;4.03;;;;;;;3.14;100.00;100996.66;1767704;81;21018;-64
2022/10/21 00:45:14;;;;;;;8.30;4.53;;;;;;;3.03;100.00;101006.13;1767697;81;21557;-65
2022/10/21 00:47:47;;;;;;;4.95;3.95;;;;;;;2.82;100.00;101008.55;1767896;81;21064;-65
2022/10/21 00:50:30;;;;;;;9.15;4.45;;;;;;;2.76;100.00;101011.09;1767781;81;21124;-65
2022/10/21 00:52:57;;;;;;;8.88;4.50;;;;;;;2.78;100.00;101006.78;1767723;81;21056;-65
2022/10/21 00:55:25;;;;;;;5.53;4.20;;;;;;;2.68;100.00;101004.09;1767594;81;21001;-65
2022/10/21 00:57:51;;;;;;;7.20;4.47;;;;;;;2.86;100.00;101010.34;1767880;81;21107;-65
2022/10/21 01:00:18;;;;;;;10.82;5.47;;;;;;;2.78;100.00;101013.28;1764925;81;21080;-66
2022/10/21 01:02:45;;;;;;;7.25;4.47;;;;;;;2.62;100.00;101006.66;1739026;82;21994;-65
2022/10/21 01:05:12;;;;;;;6.50;4.37;;;;;;;2.66;100.00;101008.41;1739025;82;21107;-65
2022/10/21 01:07:39;;;;;;;6.60;4.92;;;;;;;2.57;100.00;101010.92;1738993;82;21032;-65
2022/10/21 01:10:07;;;;;;;9.18;5.33;;;;;;;2.58;100.00;101007.48;1738989;82;21095;-69
2022/10/21 01:13:15;;;;;;;7.12;4.87;;;;;;;2.80;100.00;101003.77;1738924;82;21052;-65
2022/10/21 01:16:11;;;;;;;8.90;5.67;;;;;;;2.83;100.00;101007.69;1739123;82;21166;-64
2022/10/21 01:18:54;;;;;;;7.05;5.00;;;;;;;2.76;100.00;101000.28;1731610;82;21056;-65
2022/10/21 01:21:41;;;;;;;5.80;4.60;;;;;;;2.81;100.00;100993.38;1738821;80;21036;-65
2022/10/21 01:24:48;;;;;;;8.78;5.28;;;;;;;2.67;100.00;100991.96;1739486;82;20994;-66
2022/10/21 01:27:39;;;;;;;6.85;4.97;;;;;;;2.89;100.00;101003.41;1739115;82;21051;-66
2022/10/21 01:30:33;;;;;;;11.65;5.25;;;;;;;2.62;100.00;100997.96;1739150;82;21619;-65
2022/10/21 01:33:24;;;;;;;6.25;4.37;;;;;;;2.43;100.00;100989.12;1739036;82;21032;-67
2022/10/21 01:36:26;;;;;;;8.73;5.55;;;;;;;2.20;100.00;100994.94;1651432;86;21223;-65
2022/10/21 01:39:10;;;;;;;9.45;4.65;;;;;;;2.29;100.00;100995.47;1651007;86;21130;-66
2022/10/21 01:41:45;;;;;;;9.50;5.15;;;;;;;2.28;100.00;100999.81;1712455;82;21028;-66
2022/10/21 01:44:27;;;;;;;7.28;4.92;;;;;;;2.27;100.00;101005.84;1739178;82;21215;-64
2022/10/21 01:47:11;;;;;;;5.70;4.33;;;;;;;2.35;100.00;101012.85;1740180;82;21084;-65
2022/10/21 01:49:52;;;;;;;7.90;5.20;;;;;;;2.35;100.00;101033.25;1735963;82;21056;-65
2022/10/21 01:52:19;;;;;;;10.53;5.70;;;;;;;2.39;100.00;101044.53;1733643;82;21053;-65
2022/10/21 01:55:03;;;;;;;9.90;6.03;;;;;;;2.38;100.00;101031.10;1733488;82;21131;-65
2022/10/21 01:57:35;;;;;;;11.75;6.37;;;;;;;2.30;100.00;101032.30;1733659;82;21114;-65
2022/10/21 02:00:02;;;;;;;7.90;5.92;;;;;;;2.40;100.00;101033.30;1733368;81;21177;-66
2022/10/21 02:02:32;;;;;;;8.98;6.60;;;;;;;2.28;100.00;101027.53;1763602;81;21037;-66
2022/10/21 02:05:03;;;;;;;12.75;6.05;;;;;;;2.34;100.00;101022.81;1763686;81;21538;-65
2022/10/21 02:07:30;;;;;;;10.58;6.70;;;;;;;2.38;100.00;101028.50;1764103;81;21690;-66
2022/10/21 02:09:58;;;;;;;8.33;5.83;;;;;;;2.40;100.00;101033.30;1763861;81;21127;-66
2022/10/21 02:12:24;;;;;;;9.40;6.72;;;;;;;2.42;100.00;101035.05;1758936;81;21057;-64
2022/10/21 02:14:51;;;;;;;10.43;6.58;;;;;;;2.44;100.00;101032.45;1763546;81;21099;-65
2022/10/21 02:17:20;;;;;;;10.10;6.25;;;;;;;2.45;100.00;101032.91;1763766;81;21072;-65
2022/10/21 02:19:46;;;;;;;8.15;6.30;;;;;;;2.43;100.00;101038.52;1763835;81;21036;-64
2022/10/21 02:22:16;;;;;;;11.80;7.45;;;;;;;2.40;100.00;101038.50;1763991;81;21811;-66
2022/10/21 02:25:06;;;;;;;9.95;6.65;;;;;;;2.48;100.00;101035.53;1763682;81;21096;-66
2022/10/21 02:27:33;;;;;;;12.03;7.12;;;;;;;2.44;100.00;101040.25;1747162;81;21587;-66
2022/10/21 02:29:59;;;;;;;12.45;7.05;;;;;;;2.57;100.00;101038.22;1763837;81;21584;-65
2022/10/21 02:32:58;;;;;;;14.80;7.28;;;;;;;2.39;100.00;101042.80;1764129;81;21028;-65
2022/10/21 02:35:52;;;;;;;8.23;5.70;;;;;;;2.37;100.00;101035.84;1762398;81;21699;-65
2022/10/21 02:38:28;;;;;;;9.90;5.40;;;;;;;2.53;100.00;101042.94;1762410;81;21038;-66
2022/10/21 02:41:06;;;;;;;10.30;6.65;;;;;;;2.46;100.00;101041.14;1762088;81;21068;-65
2022/10/21 02:43:48;;;;;;;12.40;6.12;;;;;;;2.53;100.00;101035.14;1762320;81;21014;-65
2022/10/21 02:46:15;;;;;;;13.78;6.78;;;;;;;2.40;100.00;101041.09;1762163;81;21052;-65
2022/10/21 02:48:46;;;;;;;9.15;6.10;;;;;;;2.40;100.00;101043.26;1762404;81;21884;-65
2022/10/21 02:51:13;;;;;;;10.72;6.35;;;;;;;2.28;100.00;101055.69;1762257;81;21060;-65
2022/10/21 02:53:39;;;;;;;12.28;6.50;;;;;;;2.29;100.00;101039.23;1732276;81;21069;-66
2022/10/21 02:56:06;;;;;;;13.08;6.78;;;;;;;2.28;100.00;101042.70;1761998;81;22002;-66
2022/10/21 02:58:33;;;;;;;8.90;6.53;;;;;;;2.18;100.00;101043.42;1761977;81;21056;-65
2022/10/21 03:01:00;;;;;;;10.98;6.33;;;;;;;2.18;100.00;101041.27;1762404;81;21111;-65
2022/10/21 03:03:28;;;;;;;7.60;5.85;;;;;;;1.99;100.00;101050.13;1763711;81;21037;-65
2022/10/21 03:05:56;;;;;;;10.08;5.67;;;;;;;2.00;100.00;101055.79;1763787;81;20990;-65
2022/10/21 03:08:25;;;;;;;8.05;5.80;;;;;;;2.08;100.00;101063.23;1763610;81;21080;-65
2022/10/21 03:10:51;;;;;;;10.48;5.97;;;;;;;1.99;100.00;101060.95;1763630;81;21624;-65
2022/10/21 03:13:18;;;;;;;9.45;5.92;;;;;;;1.98;100.00;101076.08;1763566;81;21782;-65
2022/10/21 03:15:45;;;;;;;9.28;6.10;;;;;;;2.03;100.00;101066.65;1763360;81;21073;-65
2022/10/21 03:18:12;;;;;;;10.53;6.22;;;;;;;1.83;100.00;101067.23;1763813;81;21045;-65
2022/10/21 03:20:39;;;;;;;13.08;7.17;;;;;;;1.83;100.00;101069.84;1763856;81;21007;-65
2022/10/21 03:23:06;;;;;;;10.90;5.95;;;;;;;1.96;100.00;101064.83;1763787;81;21040;-64
2022/10/21 03:25:35;;;;;;;13.13;6.78;;;;;;;1.95;100.00;101060.46;1763724;81;21139;-65
2022/10/21 03:28:04;;;;;;;8.98;6.25;;;;;;;1.78;100.00;101063.71;1763340;81;21069;-66
2022/10/21 03:30:33;;;;;;;11.70;6.58;;;;;;;1.92;100.00;101061.73;1763389;81;21084;-66
2022/10/21 03:32:59;;;;;;;8.93;6.37;;;;;;;1.97;100.00;101058.77;1731446;81;21052;-65
2022/10/21 03:35:27;;;;;;;11.78;6.17;;;;;;;1.88;100.00;101057.77;1763976;81;21068;-66
2022/10/21 03:37:53;;;;;;;9.60;5.83;;;;;;;1.87;100.00;101047.38;1763518;79;21928;-65
2022/10/21 03:40:19;;;;;;;8.60;6.05;;;;;;;1.85;100.00;101049.95;1764155;81;21683;-66
2022/10/21 03:42:46;;;;;;;8.80;5.80;;;;;;;1.85;100.00;101040.86;1763771;81;21021;-65
2022/10/21 03:45:13;;;;;;;10.13;5.72;;;;;;;1.79;100.00;101052.45;1763650;81;21100;-65
2022/10/21 03:47:40;;;;;;;9.58;6.28;;;;;;;1.75;100.00;101050.70;1763711;81;21052;-65
2022/10/21 03:50:09;;;;;;;10.25;6.20;;;;;;;1.64;100.00;101050.97;1763842;81;22102;-66
2022/10/21 03:52:35;;;;;;;8.18;5.33;;;;;;;1.71;100.00;101051.50;1764039;81;21608;-65
2022/10/21 03:55:02;;;;;;;8.70;5.70;;;;;;;1.62;100.00;101051.37;1763691;81;21021;-65
2022/10/21 03:57:29;;;;;;;8.28;6.03;;;;;;;1.59;100.00;101048.73;1763783;81;21084;-66
2022/10/21 03:59:56;;;;;;;9.08;5.70;;;;;;;1.60;100.00;101046.14;1763819;81;22130;-66
2022/10/21 04:02:22;;;;;;;12.65;6.05;;;;;;;1.68;100.00;101046.27;1763832;81;21782;-66
2022/10/21 04:04:49;;;;;;;10.90;5.75;;;;;;;1.55;100.00;101050.84;1763860;81;21064;-65
2022/10/21 04:07:15;;;;;;;8.00;5.80;;;;;;;1.60;100.00;101046.58;1764063;81;21005;-65
2022/10/21 04:09:42;;;;;;;10.88;5.37;;;;;;;1.54;100.00;101046.48;1763769;81;21029;-66
2022/10/21 04:12:09;;;;;;;9.30;5.80;;;;;;;1.58;100.00;101046.55;1764279;81;21040;-65
2022/10/21 04:14:35;;;;;;;10.90;5.75;;;;;;;1.77;100.00;101042.91;1763711;81;21158;-65
2022/10/21 04:17:02;;;;;;;10.58;7.10;;;;;;;1.83;100.00;101038.66;1763922;81;21053;-66
2022/10/21 04:19:30;;;;;;;10.70;6.65;;;;;;;1.88;100.00;101046.09;1764069;81;21065;-65
2022/10/21 04:21:56;;;;;;;7.72;6.20;;;;;;;1.95;100.00;101044.44;1764003;81;21056;-66
2022/10/21 04:24:23;;;;;;;9.63;6.25;;;;;;;1.83;100.00;101059.45;1763789;81;21060;-66
2022/10/21 04:26:50;;;;;;;11.68;6.45;;;;;;;1.93;100.00;101058.27;1764042;81;22131;-65
2022/10/21 04:29:17;;;;;;;11.90;6.62;;;;;;;2.05;100.00;101057.15;1763753;81;21036;-66
2022/10/21 04:31:43;;;;;;;9.80;6.05;;;;;;;2.17;100.00;101059.89;1763839;81;21049;-66
2022/10/21 04:34:10;;;;;;;10.08;6.30;;;;;;;2.11;100.00;101058.50;1763588;81;21030;-66
2022/10/21 04:36:36;;;;;;;12.88;7.03;;;;;;;2.23;100.00;101059.97;1762151;80;21195;-66
2022/10/21 04:39:03;;;;;;;17.40;6.33;;;;;;;2.48;100.00;101057.19;1762155;81;21132;-64
2022/10/21 04:41:30;;;;;;;12.50;6.85;;;;;;;2.46;100.00;101060.64;1762131;81;21045;-65
2022/10/21 04:43:58;;;;;;;13.72;7.95;;;;;;;2.41;100.00;101066.22;1761727;81;21002;-65
2022/10/21 04:46:25;;;;;;;10.45;5.85;;;;;;;2.53;100.00;101075.45;1762072;81;21037;-65
2022/10/21 04:48:51;;;;;;;11.12;6.53;;;;;;;2.66;100.00;101069.52;1762504;81;21037;-66
2022/10/21 04:51:18;;;;;;;11.30;6.72;;;;;;;2.94;100.00;101066.80;1752703;81;21593;-65
2022/10/21 04:53:45;;;;;;;9.28;7.12;;;;;;;2.77;100.00;101066.18;1751859;81;21037;-66
2022/10/21 04:56:11;;;;;;;11.90;6.92;;;;;;;2.89;100.00;101068.89;1752168;81;21076;-66
2022/10/21 04:58:39;;;;;;;11.75;7.28;;;;;;;2.98;100.00;101062.47;1751857;81;21081;-66
2022/10/21 05:01:05;;;;;;;15.40;8.50;;;;;;;3.15;100.00;101060.89;1752211;81;21070;-66
2022/10/21 05:03:32;;;;;;;14.07;7.65;;;;;;;3.28;100.00;101071.39;1751936;81;21234;-65
2022/10/21 05:05:59;;;;;;;11.85;7.60;;;;;;;3.28;100.00;101071.39;1752084;81;21513;-66
2022/10/21 05:08:27;;;;;;;11.35;6.83;;;;;;;3.45;100.00;101064.59;1751975;81;21009;-66
2022/10/21 05:10:58;;;;;;;10.32;6.75;;;;;;;3.82;100.00;101066.54;1752087;81;21588;-65
2022/10/21 05:13:26;;;;;;;15.95;7.50;;;;;;;3.82;100.00;101066.54;1752185;81;21017;-66
2022/10/21 05:15:59;;;;;;;14.93;7.55;;;;;;;3.80;100.00;101062.64;1752264;81;21049;-66
2022/10/21 05:18:27;;;;;;;16.75;7.53;;;;;;;3.93;100.00;101063.16;1752016;81;21482;-65
2022/10/21 05:20:55;;;;;;;10.65;7.33;;;;;;;4.09;100.00;101061.46;1752132;81;21030;-67
2022/10/21 05:23:24;;;;;;;9.65;6.03;;;;;;;4.11;100.00;101054.97;1752029;81;21502;-65
2022/10/21 05:25:51;;;;;;;9.73;6.33;;;;;;;4.34;100.00;101059.83;1751968;81;21113;-66
2022/10/21 05:28:18;;;;;;;11.78;6.22;;;;;;;4.34;100.00;101057.22;1751968;81;21206;-65
2022/10/21 05:30:44;;;;;;;9.55;6.50;;;;;;;4.71;100.00;101061.22;1751496;81;21045;-66
2022/10/21 05:33:11;;;;;;;13.90;8.55;;;;;;;4.71;100.00;101061.22;1751712;81;21076;-67
2022/10/21 05:35:38;;;;;;;11.28;6.42;;;;;;;4.48;100.00;101064.22;1751574;81;21045;-66
2022/10/21 05:38:04;;;;;;;11.22;6.80;;;;;;;4.78;100.00;101056.89;1751550;80;21596;-67
2022/10/21 05:40:31;;;;;;;10.15;6.05;;;;;;;4.90;100.00;101065.17;1751731;81;21150;-67
2022/10/21 05:42:57;;;;;;;13.65;7.80;;;;;;;4.86;100.00;101068.23;1751642;81;21116;-67
2022/10/21 05:45:25;;;;;;;12.58;7.22;;;;;;;5.15;100.00;101068.23;1751842;81;21049;-66
2022/10/21 05:47:52;;;;;;;11.20;6.22;;;;;;;5.20;100.00;101067.82;1751676;81;21036;-66
2022/10/21 05:50:18;;;;;;;11.83;6.53;;;;;;;5.35;100.00;101066.93;1755630;81;21068;-67
2022/10/21 05:52:45;;;;;;;11.95;6.58;;;;;;;5.38;100.00;101063.44;1761833;81;21849;-66
2022/10/21 05:55:11;;;;;;;12.70;7.28;;;;;;;5.49;100.00;101067.36;1762188;81;21053;-67
2022/10/21 05:57:38;;;;;;;10.50;7.22;;;;;;;5.65;100.00;101076.47;1762072;81;21032;-66
2022/10/21 06:00:06;;;;;;;12.82;6.55;;;;;;;5.83;100.00;101079.94;1762375;81;21525;-67
2022/10/21 06:02:32;;;;;;;10.48;6.55;;;;;;;6.04;100.00;101079.03;1762266;81;21025;-68
2022/10/21 06:04:59;;;;;;;9.25;6.42;;;;;;;6.39;100.00;101081.50;1762349;81;21218;-67
2022/10/21 06:07:25;;;;;;;9.93;5.60;;;;;;;6.55;100.00;101082.30;1762051;81;21513;-66
2022/10/21 06:09:52;;;;;;;8.50;5.60;;;;;;;6.76;100.00;101081.30;1762302;81;21033;-67
2022/10/21 06:12:19;;;;;;;8.35;4.72;;;;;;;6.78;100.00;101078.69;1762132;81;21025;-66
2022/10/21 06:14:46;;;;;;;14.07;5.40;;;;;;;6.89;100.00;101084.72;1761963;81;21060;-67
2022/10/21 06:17:14;;;;;;;9.08;5.47;;;;;;;6.93;100.00;101083.39;1762564;81;21911;-67
2022/10/21 06:19:40;;;;;;;9.58;5.37;;;;;;;7.65;100.00;101078.43;1762288;81;21560;-67
2022/10/21 06:22:09;;;;;;;9.20;4.67;;;;;;;8.28;100.00;101073.78;1762172;81;21045;-68
2022/10/21 06:24:35;;;;;;;8.58;5.17;;;;;;;8.79;100.00;101074.02;1762125;81;21565;-67
2022/10/21 06:27:03;;;;;;;8.88;5.08;;;;;;;9.26;100.00;101080.74;1762242;81;21064;-67
2022/10/21 06:29:30;;;;;;;11.18;5.30;;;;;;;9.77;100.00;101078.95;1762203;81;21164;-67
2022/10/21 06:31:57;;;;;;;8.78;4.42;;;;;;;10.36;100.00;101079.17;1762262;81;21083;-68
2022/10/21 06:34:24;;;;;;;6.25;4.08;;;;;;;11.25;100.00;101069.20;1748812;81;21511;-67
2022/10/21 06:36:51;;;;;;;6.28;4.30;;;;;;;12.12;96.09;101070.02;1731687;81;21074;-68
2022/10/21 06:39:17;;;;;;;7.62;4.20;;;;;;;13.04;91.91;101069.86;1731870;82;21129;-67
2022/10/21 06:41:44;;;;;;;7.22;3.95;;;;;;;13.69;77.03;101077.00;1731715;82;21553;-68
2022/10/21 06:44:11;;;;;;;7.72;3.50;;;;;;;14.40;71.68;101076.19;1731730;82;21095;-67
2022/10/21 06:46:37;;;;;;;4.67;3.50;;;;;;;15.05;66.96;101075.02;1732179;82;21070;-68
2022/10/21 06:49:04;;;;;;;4.78;3.47;;;;;;;15.67;65.31;101079.48;1731886;82;21042;-68
2022/10/21 06:51:32;;;;;;;4.62;3.40;;;;;;;16.29;57.80;101076.80;1731773;82;21094;-68
2022/10/21 06:53:58;;;;;;;5.05;3.10;;;;;;;16.77;53.59;101074.09;1731861;82;21270;-68
2022/10/21 06:56:28;;;;;;;7.08;3.35;;;;;;;17.14;50.06;101087.00;1731726;82;21042;-68
2022/10/21 06:58:56;;;;;;;5.85;3.50;;;;;;;17.63;49.41;101079.20;1731662;82;21122;-70
2022/10/21 07:01:27;;;;;;;6.03;2.80;;;;;;;18.02;47.74;101072.77;1731549;82;21079;-68
2022/10/21 07:03:54;;;;;;;5.40;2.83;;;;;;;18.32;46.00;101072.06;1731580;82;21101;-70
2022/10/21 07:06:21;;;;;;;5.15;2.75;;;;;;;18.85;45.35;101070.92;1731762;82;21142;-69
2022/10/21 07:08:49;;;;;;;3.25;2.62;;;;;;;19.41;43.39;101068.58;1731770;82;21185;-67
2022/10/21 07:11:16;;;;;;;3.98;2.20;;;;;;;19.69;41.77;101071.82;1732081;82;21020;-68
2022/10/21 07:13:42;;;;;;;3.50;2.40;;;;;;;20.18;40.09;101074.19;1731653;82;21027;-68
2022/10/21 07:16:31;;;;;;;3.02;2.20;;;;;;;20.19;39.40;101075.89;1732087;82;21071;-67
2022/10/21 07:18:58;;;;;;;3.17;2.30;;;;;;;20.10;39.45;101069.77;1731749;82;21194;-68
2022/10/21 07:21:27;;;;;;;4.75;2.52;;;;;;;20.25;38.46;101072.84;1731671;82;21011;-68
2022/10/21 07:23:55;;;;;;;4.72;2.47;;;;;;;20.14;38.04;101075.32;1731967;82;21050;-67
2022/10/21 07:26:22;;;;;;;3.90;2.42;;;;;;;20.41;37.86;101067.87;1731998;82;21153;-66
2022/10/21 07:28:50;;;;;;;5.47;3.08;;;;;;;20.70;37.14;101065.53;1731730;82;21165;-68
2022/10/21 07:31:19;;;;;;;3.98;2.60;;;;;;;21.15;36.59;101069.33;1731849;82;21269;-67
2022/10/21 07:33:45;;;;;;;6.03;2.60;;;;;;;21.38;35.90;101067.79;1736931;81;21100;-67
2022/10/21 07:36:19;;;;;;;4.22;2.72;;;;;;;22.04;35.24;101074.47;1761838;81;21219;-68
2022/10/21 07:38:49;;;;;;;4.60;2.15;;;;;;;22.59;33.31;101059.82;1762086;81;21096;-68
2022/10/21 07:41:26;;;;;;;5.08;2.55;;;;;;;22.66;32.02;101060.23;1762624;81;21040;-68
2022/10/21 07:43:54;;;;;;;5.85;2.30;;;;;;;22.85;32.47;101065.14;1762850;81;21848;-67
2022/10/21 07:46:21;;;;;;;4.40;2.50;;;;;;;23.01;32.02;101061.71;1762247;81;21158;-68
2022/10/21 07:48:48;;;;;;;4.12;2.25;;;;;;;22.95;32.09;101065.66;1762098;81;21068;-67
2022/10/21 07:51:21;;;;;;;3.05;2.05;;;;;;;23.39;30.86;101057.95;1762138;81;21057;-66
2022/10/21 07:54:36;;;;;;;4.67;2.42;;;;;;;22.77;31.10;101059.81;1796122;79;23072;-69
2022/10/21 07:57:03;;;;;;;3.42;2.35;;;;;;;23.62;29.21;101061.06;1756206;80;21020;-68
2022/10/21 07:59:29;;;;;;;4.97;2.22;;;;;;;23.50;29.58;101063.36;1756269;81;21193;-69
2022/10/21 08:01:56;;;;;;;4.40;2.60;;;;;;;23.93;28.75;101064.11;1756409;81;21022;-69
2022/10/21 08:04:30;;;;;;;4.90;2.55;;;;;;;23.98;28.83;101075.36;1756189;81;21081;-68
2022/10/21 08:06:54;;;;;;;4.47;2.50;;;;;;;24.26;28.95;101066.45;1756313;81;21069;-67
2022/10/21 08:09:23;;;;;;;2.77;2.17;;;;;;;24.17;28.60;101069.87;1756344;81;20918;-67
2022/10/21 08:11:50;;;;;;;4.20;2.87;;;;;;;24.12;28.66;101062.66;1756389;81;21147;-68
2022/10/21 08:14:19;;;;;;;3.83;2.20;;;;;;;23.79;28.31;101069.22;1756291;81;21089;-68
2022/10/21 08:16:51;;;;;;;7.20;2.72;;;;;;;23.69;28.66;101072.70;1756444;81;21463;-68
2022/10/21 08:19:23;;;;;;;6.28;2.85;;;;;;;23.81;28.89;101067.28;1756440;81;21022;-68
2022/10/21 08:21:49;;;;;;;4.80;2.73;;;;;;;24.05;27.77;101059.09;1756682;81;21128;-68
2022/10/21 08:24:16;;;;;;;5.15;2.33;;;;;;;24.16;28.04;101064.13;1756778;81;21811;-69
2022/10/21 08:26:42;;;;;;;3.67;2.35;;;;;;;24.62;27.47;101057.77;1756242;81;21049;-68
2022/10/21 08:29:11;;;;;;;5.25;2.42;;;;;;;24.33;26.73;101054.20;1756527;81;21541;-69
2022/10/21 08:31:38;;;;;;;4.03;2.83;;;;;;;24.13;27.13;101053.59;1756395;81;21571;-68
2022/10/21 08:34:05;;;;;;;3.50;2.60;;;;;;;24.26;27.82;101057.02;1756710;81;21039;-68
2022/10/21 08:36:32;;;;;;;3.37;2.08;;;;;;;24.54;27.28;101047.59;1747024;81;21118;-67
2022/10/21 08:38:59;;;;;;;3.85;2.37;;;;;;;24.83;26.76;101043.87;1726190;83;21558;-68
2022/10/21 08:41:47;;;;;;;2.52;1.98;;;;;;;24.69;26.66;101042.81;1726124;83;21081;-67
2022/10/21 08:44:34;;;;;;;3.72;1.92;;;;;;;24.55;26.57;101045.75;1725464;82;21455;-68
2022/10/21 08:47:32;;;;;;;3.05;1.70;;;;;;;24.41;27.02;101053.11;1726241;82;21561;-66
2022/10/21 08:50:14;;;;;;;5.22;1.95;;;;;;;24.71;26.42;101046.24;1726221;83;21929;-68
2022/10/21 08:53:05;;;;;;;3.40;1.60;;;;;;;24.59;25.61;101044.53;1725451;82;21066;-68
2022/10/21 08:55:38;;;;;;;2.75;1.60;;;;;;;24.64;25.89;101047.70;1713427;83;21035;-68
2022/10/21 08:58:05;;;;;;;3.20;1.82;;;;;;;24.59;25.47;101044.53;1713805;82;21622;-68
2022/10/21 09:01:15;;;;;;;5.95;1.80;;;;;;;24.46;25.53;101052.23;1713653;83;21621;-69
2022/10/21 09:03:53;;;;;;;;;;;;;;;24.24;26.46;101052.25;1701572;82;21296;-67
2022/10/21 09:06:40;;;;;;;4.65;1.82;;;;;;;23.27;26.49;101052.17;1712947;83;20545;-68
2022/10/21 09:09:32;;;;;;;3.02;1.82;;;;;;;23.13;26.80;101050.03;1712985;83;21036;-68
2022/10/21 09:12:20;;;;;;;2.92;1.65;;;;;;;22.82;27.72;101048.27;1713143;83;21079;-69
2022/10/21 09:15:17;;;;;;;3.05;1.72;;;;;;;22.15;28.33;101055.80;1713118;82;22270;-67
2022/10/21 09:18:16;;;;;;;4.35;1.82;;;;;;;21.72;28.57;101057.48;1713187;82;21237;-68
2022/10/21 09:21:05;;;;;;;5.70;2.60;;;;;;;21.14;28.84;101057.77;1713037;82;21040;-67
2022/10/21 09:23:50;;;;;;;5.50;2.00;;;;;;;20.58;29.67;101058.30;1713119;83;21083;-68
2022/10/21 09:26:44;;;;;;;3.87;1.85;;;;;;;20.29;30.30;101059.66;1709626;82;21550;-67
2022/10/21 09:29:32;;;;;;;3.75;2.08;;;;;;;20.10;30.64;101068.44;1713273;82;21016;-67
2022/10/21 09:32:22;;;;;;;3.05;1.90;;;;;;;19.79;30.98;101062.80;1713025;83;21683;-67
2022/10/21 09:35:03;;;;;;;3.20;1.67;;;;;;;19.27;30.81;101060.04;1712949;83;21021;-67
2022/10/21 09:37:35;;;;;;;3.60;2.33;;;;;;;18.77;31.92;101061.14;1678629;85;21044;-67
2022/10/21 09:40:14;;;;;;;;;;;;;;;18.22;33.22;101062.34;1681025;85;21091;-67
2022/10/21 09:42:41;;;;;;;3.08;1.77;;;;;;;18.15;33.31;101061.84;1677891;85;20201;-67
2022/10/21 09:45:22;;;;;;;4.22;2.00;;;;;;;17.97;34.14;101057.50;1678839;85;21269;-67
2022/10/21 09:47:56;;;;;;;4.87;1.98;;;;;;;17.76;34.45;101057.65;1678612;85;21049;-67
2022/10/21 09:50:22;;;;;;;5.58;1.62;;;;;;;17.82;34.60;101056.00;1678775;85;21061;-67
2022/10/21 09:52:57;;;;;;;3.27;2.15;;;;;;;17.75;34.52;101055.91;1678480;85;21081;-67
2022/10/21 09:55:26;;;;;;;6.83;2.40;;;;;;;17.81;34.81;101059.63;1712961;83;21054;-67
2022/10/21 09:58:00;;;;;;;6.20;2.15;;;;;;;17.75;35.28;101058.57;1678427;85;21460;-67
2022/10/21 10:00:46;;;;;;;4.87;2.30;;;;;;;17.65;35.50;101049.35;1713261;83;21033;-67
2022/10/21 10:03:29;;;;;;;3.37;2.12;;;;;;;17.62;34.51;101049.48;1713025;83;21062;-67
2022/10/21 10:05:57;;;;;;;3.77;2.35;;;;;;;17.66;34.82;101047.06;1708497;83;21042;-67
2022/10/21 10:08:32;;;;;;;5.17;2.40;;;;;;;17.97;35.06;101035.70;1678719;85;21066;-68
2022/10/21 10:11:15;;;;;;;3.95;2.10;;;;;;;18.05;35.09;101037.94;1678706;85;21073;-67
2022/10/21 10:13:47;;;;;;;4.80;2.05;;;;;;;18.36;34.85;101033.63;1678311;85;21017;-67
2022/10/21 10:16:29;;;;;;;3.83;1.90;;;;;;;18.53;34.82;101028.20;1713227;83;21109;-67
2022/10/21 10:19:16;;;;;;;4.58;2.02;;;;;;;18.82;33.71;101033.74;1678363;85;21022;-68
2022/10/21 10:21:43;;;;;;;3.02;1.92;;;;;;;19.23;33.03;101024.66;1713083;83;21054;-67
2022/10/21 10:24:17;;;;;;;4.00;2.12;;;;;;;19.74;32.62;101018.09;1678481;85;21113;-66
2022/10/21 10:26:43;;;;;;;2.92;1.60;;;;;;;20.31;31.95;101014.95;1713077;83;21034;-67
2022/10/21 10:29:26;;;;;;;7.17;2.30;;;;;;;20.80;31.01;101010.94;1678391;85;21069;-67
2022/10/21 10:31:55;;;;;;;2.72;1.62;;;;;;;21.08;30.29;101019.33;1678566;85;21036;-68
2022/10/21 10:34:27;;;;;;;1.82;1.20;;;;;;;21.24;29.69;101012.95;1712821;83;21105;-68
2022/10/21 10:37:11;;;;;;;2.15;1.50;;;;;;;20.65;29.20;101022.16;1678273;85;21133;-67
2022/10/21 10:39:38;;;;;;;2.12;1.70;;;;;;;19.96;30.14;101019.83;1712573;82;21006;-67
2022/10/21 10:42:05;;;;;;;5.33;1.57;;;;;;;19.63;29.95;101013.39;1678186;85;21040;-68
2022/10/21 10:44:40;;;;;;;1.77;1.40;;;;;;;19.25;30.54;101020.55;1702770;83;21038;-68
2022/10/21 10:47:10;;;;;;;2.10;1.80;;;;;;;18.95;31.14;101025.39;1678636;85;21112;-68
2022/10/21 10:49:40;;;;;;;3.47;2.15;;;;;;;18.59;31.63;101025.19;1702887;83;21191;-68
2022/10/21 10:52:15;;;;;;;3.12;2.25;;;;;;;18.18;31.94;101027.01;1678474;85;21037;-68
2022/10/21 10:54:44;;;;;;;3.02;1.80;;;;;;;17.68;33.10;101020.36;1719844;83;21616;-67
2022/10/21 10:57:15;;;;;;;3.33;1.98;;;;;;;17.17;34.50;101017.64;1725793;83;21708;-67
2022/10/21 10:59:56;;;;;;;4.30;2.30;;;;;;;16.69;35.46;101009.78;1691025;84;21004;-67
2022/10/21 11:02:39;;;;;;;4.40;2.17;;;;;;;16.76;35.55;101003.22;1691240;84;21512;-68
2022/10/21 11:05:35;;;;;;;5.95;2.25;;;;;;;16.49;35.89;100994.30;1691057;84;21008;-68
2022/10/21 11:08:22;;;;;;;3.15;2.35;;;;;;;16.36;35.84;100990.52;1691047;84;21473;-67
2022/10/21 11:10:58;;;;;;;5.60;2.70;;;;;;;16.12;36.16;100984.08;1690736;84;21104;-66
2022/10/21 11:13:25;;;;;;;4.75;2.67;;;;;;;16.22;36.48;100981.88;1691124;84;21108;-69
2022/10/21 11:16:18;;;;;;;7.22;2.70;;;;;;;16.26;35.72;100982.58;1690893;84;21087;-67
2022/10/21 11:19:00;;;;;;;4.42;2.72;;;;;;;16.86;35.45;100980.56;1691075;84;21100;-68
2022/10/21 11:21:49;;;;;;;14.47;8.23;;;;;;;17.03;35.89;100974.42;1691008;84;21044;-67
2022/10/21 15:33:31;;;;;;;43.35;26.15;;;;;;;8.16;67.60;100953.66;1870292;76;28095;-67
2022/10/21 15:36:11;;;;;;;10.50;6.72;;;;;;;8.14;67.47;100962.02;1817420;77;22292;-66
2022/10/21 15:38:45;;;;;;;11.80;4.40;;;;;;;8.14;67.55;100967.27;1845881;77;21135;-67
2022/10/21 15:41:10;;;;;;;7.80;4.83;;;;;;;8.04;67.69;100960.39;1845253;77;21016;-67
2022/10/21 15:43:37;;;;;;;13.30;8.98;;;;;;;8.02;67.59;100961.31;1840092;77;21480;-65
2022/10/21 15:46:04;;;;;;;8.63;5.15;;;;;;;7.88;68.45;100962.80;1825418;78;21071;-66
2022/10/21 15:48:30;;;;;;;12.55;5.12;;;;;;;7.72;68.86;100971.30;1825544;78;21033;-66
2022/10/21 15:50:57;;;;;;;11.18;4.67;;;;;;;7.64;69.25;100968.77;1825579;78;21237;-67
2022/10/21 15:53:25;;;;;;;7.67;4.20;;;;;;;7.47;69.68;100975.94;1825305;78;21041;-65
2022/10/21 15:55:52;;;;;;;7.62;4.20;;;;;;;7.41;69.87;100978.61;1825388;78;21009;-67